createdAt,value
2018-08-10T00:00:30.373Z,99.10
2018-08-10T00:02:59.569Z,99.15
2018-08-10T00:05:28.348Z,99.22
2018-08-10T00:07:57.045Z,98.37
2018-08-10T00:10:25.833Z,99.60
2018-08-10T00:12:54.547Z,99.17
2018-08-10T00:15:23.272Z,98.55
2018-08-10T00:17:51.983Z,98.94
2018-08-10T00:20:20.661Z,97.73
2018-08-10T00:22:49.388Z,97.99
2018-08-10T00:25:18.841Z,98.12
2018-08-10T00:27:47.529Z,98.46
2018-08-10T00:30:17.737Z,99.22
2018-08-10T00:32:47.657Z,100.00
2018-08-10T00:35:16.517Z,100.00
2018-08-10T00:37:46.366Z,100.00
2018-08-10T00:40:18.640Z,100.00
2018-08-10T00:42:47.465Z,100.00
2018-08-10T00:45:16.921Z,100.00
2018-08-10T00:47:46.017Z,100.00
2018-08-10T00:50:15.624Z,100.00
2018-08-10T00:52:45.253Z,100.00
2018-08-10T00:55:15.260Z,100.00
2018-08-10T00:57:44.361Z,100.00
2018-08-10T01:00:15.384Z,100.00
2018-08-10T01:02:44.093Z,100.00
2018-08-10T01:05:12.833Z,100.00
2018-08-10T01:07:41.595Z,100.00
2018-08-10T01:10:13.409Z,100.00
2018-08-10T01:12:42.489Z,100.00
2018-08-10T01:15:13.032Z,100.00
2018-08-10T01:17:41.970Z,100.00
2018-08-10T01:20:25.332Z,100.00
2018-08-10T01:22:59.164Z,100.00
2018-08-10T01:25:28.381Z,100.00
2018-08-10T01:27:59.994Z,100.00
2018-08-10T01:30:29.780Z,100.00
2018-08-10T01:32:58.650Z,100.00
2018-08-10T01:35:27.876Z,100.00
2018-08-10T01:37:57.634Z,100.00
2018-08-10T01:40:26.334Z,100.00
2018-08-10T01:42:55.058Z,100.00
2018-08-10T01:45:23.777Z,100.00
2018-08-10T01:47:52.531Z,100.00
2018-08-10T01:50:21.238Z,100.00
2018-08-10T01:52:50.128Z,100.00
2018-08-10T01:55:18.909Z,100.00
2018-08-10T01:57:47.707Z,100.00
2018-08-10T02:00:16.421Z,100.00
2018-08-10T02:02:45.125Z,100.00
2018-08-10T02:05:14.919Z,100.00
2018-08-10T02:07:44.717Z,100.00
2018-08-10T02:10:15.853Z,100.00
2018-08-10T02:12:45.413Z,100.00
2018-08-10T02:15:16.524Z,100.00
2018-08-10T02:17:45.338Z,100.00
2018-08-10T02:20:15.642Z,100.00
2018-08-10T02:22:44.881Z,100.00
2018-08-10T02:25:14.958Z,100.00
2018-08-10T02:27:44.669Z,100.00
2018-08-10T02:30:14.870Z,100.00
2018-08-10T02:32:44.176Z,100.00
2018-08-10T02:35:12.911Z,100.00
2018-08-10T02:37:41.880Z,100.00
2018-08-10T02:40:12.814Z,100.00
2018-08-10T02:42:42.150Z,100.00
2018-08-10T02:45:10.872Z,100.00
2018-08-10T02:47:39.617Z,100.00
2018-08-10T02:50:08.326Z,100.00
2018-08-10T02:52:37.028Z,100.00
2018-08-10T02:55:07.069Z,100.00
2018-08-10T02:57:36.254Z,100.00
2018-08-10T03:00:06.566Z,100.00
2018-08-10T03:02:35.305Z,100.00
2018-08-10T03:05:04.034Z,100.00
2018-08-10T03:07:32.773Z,100.00
2018-08-10T03:10:01.499Z,100.00
2018-08-10T03:12:30.221Z,100.00
2018-08-10T03:14:58.930Z,100.00
2018-08-10T03:17:27.636Z,100.00
2018-08-10T03:19:56.364Z,100.00
2018-08-10T03:22:25.084Z,100.00
2018-08-10T03:24:53.861Z,100.00
2018-08-10T03:27:22.618Z,100.00
2018-08-10T03:29:51.339Z,99.35
2018-08-10T03:32:20.137Z,99.56
2018-08-10T03:34:49.049Z,97.83
2018-08-10T03:37:17.886Z,97.84
2018-08-10T03:39:46.606Z,97.28
2018-08-10T03:42:15.342Z,98.43
2018-08-10T03:44:44.114Z,98.09
2018-08-10T03:47:12.826Z,96.97
2018-08-10T03:49:41.584Z,97.56
2018-08-10T03:52:10.320Z,96.36
2018-08-10T03:54:39.081Z,95.22
2018-08-10T03:57:08.225Z,93.85
2018-08-10T03:59:36.939Z,85.28
2018-08-10T04:02:05.645Z,78.30
2018-08-10T04:04:34.346Z,73.03
2018-08-10T04:07:03.032Z,68.85
2018-08-10T04:09:31.727Z,67.36
2018-08-10T04:12:00.441Z,62.94
2018-08-10T04:14:29.128Z,59.55
2018-08-10T04:16:57.877Z,56.79
2018-08-10T04:19:26.588Z,52.71
2018-08-10T04:21:55.298Z,51.78
2018-08-10T04:24:23.981Z,49.69
2018-08-10T04:26:52.874Z,50.25
2018-08-10T04:29:21.590Z,48.29
2018-08-10T04:31:50.332Z,46.25
2018-08-10T04:34:19.118Z,45.06
2018-08-10T04:36:47.845Z,44.95
2018-08-10T04:39:16.534Z,42.23
2018-08-10T04:41:45.237Z,41.45
2018-08-10T04:44:13.942Z,42.82
2018-08-10T04:46:42.636Z,41.59
2018-08-10T04:49:11.398Z,41.95
2018-08-10T04:51:40.107Z,40.20
2018-08-10T04:54:08.791Z,39.58
2018-08-10T04:56:37.496Z,38.90
2018-08-10T04:59:06.206Z,39.36
2018-08-10T05:01:34.922Z,38.70
2018-08-10T05:04:03.618Z,39.47
2018-08-10T05:06:32.319Z,39.67
2018-08-10T05:09:01.129Z,39.51
2018-08-10T05:11:29.865Z,37.34
2018-08-10T05:13:59.018Z,38.45
2018-08-10T05:16:27.769Z,37.86
2018-08-10T05:18:56.562Z,37.36
2018-08-10T05:21:25.281Z,37.64
2018-08-10T05:23:54.036Z,39.46
2018-08-10T05:26:22.729Z,39.31
2018-08-10T05:28:51.445Z,38.81
2018-08-10T05:31:20.225Z,41.02
2018-08-10T05:33:49.066Z,37.72
2018-08-10T05:36:17.898Z,36.75
2018-08-10T05:38:46.601Z,37.40
2018-08-10T05:41:15.309Z,37.53
2018-08-10T05:43:44.042Z,38.19
2018-08-10T05:46:12.840Z,36.54
2018-08-10T05:48:42.334Z,38.05
2018-08-10T05:51:14.327Z,36.21
2018-08-10T05:53:43.228Z,35.40
2018-08-10T05:56:12.707Z,35.05
2018-08-10T05:58:41.398Z,34.80
2018-08-10T06:01:10.101Z,33.57
2018-08-10T06:03:38.852Z,32.13
2018-08-10T06:06:07.561Z,31.04
2018-08-10T06:08:36.273Z,32.52
2018-08-10T06:11:05.274Z,31.47
2018-08-10T06:13:34.081Z,32.12
2018-08-10T06:16:02.805Z,31.31
2018-08-10T06:18:31.890Z,32.33
2018-08-10T06:21:00.615Z,30.58
2018-08-10T06:23:29.405Z,32.36
2018-08-10T06:25:58.186Z,33.11
2018-08-10T06:28:27.048Z,33.13
2018-08-10T06:30:55.794Z,33.09
2018-08-10T06:33:24.541Z,33.86
2018-08-10T06:35:53.322Z,34.54
2018-08-10T06:38:22.048Z,32.19
2018-08-10T06:40:52.033Z,31.32
2018-08-10T06:43:20.988Z,30.46
2018-08-10T06:45:49.773Z,31.08
2018-08-10T06:48:18.501Z,31.45
2018-08-10T06:50:47.282Z,30.46
2018-08-10T06:53:18.138Z,30.38
2018-08-10T06:55:52.950Z,29.29
2018-08-10T06:58:21.746Z,30.18
2018-08-10T07:00:50.526Z,29.34
2018-08-10T07:03:19.247Z,30.56
2018-08-10T07:05:47.959Z,29.34
2018-08-10T07:08:16.710Z,28.00
2018-08-10T07:10:45.480Z,27.77
2018-08-10T07:13:14.338Z,28.33
2018-08-10T07:15:42.977Z,29.17
2018-08-10T07:18:11.698Z,31.08
2018-08-10T07:20:40.468Z,32.61
2018-08-10T07:23:09.247Z,33.76
2018-08-10T07:25:37.976Z,32.40
2018-08-10T07:28:06.718Z,32.44
2018-08-10T07:30:35.525Z,34.94
2018-08-10T07:33:04.328Z,37.64
2018-08-10T07:35:33.103Z,40.42
2018-08-10T07:38:01.915Z,37.67
2018-08-10T07:40:30.666Z,39.74
2018-08-10T07:42:59.406Z,38.99
2018-08-10T07:45:28.151Z,39.30
2018-08-10T07:47:56.906Z,37.93
2018-08-10T07:50:25.636Z,36.62
2018-08-10T07:52:54.364Z,34.69
2018-08-10T07:55:23.080Z,36.78
2018-08-10T07:57:51.795Z,37.44
2018-08-10T08:00:20.584Z,37.04
2018-08-10T08:02:49.311Z,37.00
2018-08-10T08:05:18.158Z,37.11
2018-08-10T08:07:46.878Z,36.45
2018-08-10T08:10:15.635Z,37.02
2018-08-10T08:12:44.414Z,38.00
2018-08-10T08:15:13.308Z,35.40
2018-08-10T08:17:42.049Z,36.25
2018-08-10T08:20:10.822Z,35.45
2018-08-10T08:23:07.744Z,34.88
2018-08-10T08:25:36.490Z,32.37
2018-08-10T08:28:05.231Z,33.18
2018-08-10T08:30:33.958Z,32.13
2018-08-10T08:33:03.649Z,32.08
2018-08-10T08:35:32.378Z,33.13
2018-08-10T08:38:12.276Z,35.10
2018-08-10T08:40:41.005Z,34.20
2018-08-10T08:43:09.775Z,37.14
2018-08-10T08:45:52.477Z,37.42
2018-08-10T08:48:24.196Z,36.94
2018-08-10T08:50:56.626Z,37.97
2018-08-10T08:53:30.435Z,38.19
2018-08-10T08:56:01.757Z,38.46
2018-08-10T08:58:31.019Z,39.67
2018-08-10T09:46:48.107Z,32.74
2018-08-10T09:49:16.862Z,32.73
2018-08-10T09:51:45.653Z,32.67
2018-08-10T09:54:14.391Z,35.87
2018-08-10T09:56:43.465Z,37.19
2018-08-10T09:59:12.191Z,36.64
2018-08-10T10:01:47.952Z,34.42
2018-08-10T10:04:17.255Z,33.04
2018-08-10T10:06:46.001Z,32.38
2018-08-10T10:09:14.787Z,32.61
2018-08-10T10:11:43.527Z,34.98
2018-08-10T10:14:12.325Z,36.19
2018-08-10T10:16:41.245Z,35.41
2018-08-10T10:31:46.864Z,26.13
2018-08-10T10:50:29.862Z,26.64
2018-08-10T10:52:58.740Z,26.94
2018-08-10T10:55:27.577Z,29.18
2018-08-10T10:57:56.290Z,30.61
2018-08-10T11:00:25.039Z,31.50
2018-08-10T11:02:53.770Z,31.11
2018-08-10T11:05:22.583Z,30.44
2018-08-10T11:07:51.401Z,27.43
2018-08-10T11:10:20.557Z,27.12
2018-08-10T11:12:49.359Z,27.27
2018-08-10T11:15:18.092Z,27.60
2018-08-10T11:17:46.923Z,30.07
2018-08-10T11:20:15.749Z,29.47
2018-08-10T11:22:44.776Z,27.79
2018-08-10T11:25:14.780Z,28.14
2018-08-10T11:27:44.370Z,27.15
2018-08-10T11:30:13.400Z,26.96
2018-08-10T11:32:42.118Z,25.87
2018-08-10T11:35:11.183Z,27.62
2018-08-10T11:37:40.013Z,26.35
2018-08-10T11:40:12.286Z,26.27
2018-08-10T11:42:41.250Z,26.39
2018-08-10T11:45:11.961Z,27.87
2018-08-10T11:47:40.779Z,28.15
2018-08-10T11:50:09.693Z,27.43
2018-08-10T11:52:38.657Z,24.71
2018-08-10T11:55:08.650Z,24.83
2018-08-10T11:57:37.379Z,24.54
2018-08-10T12:00:07.577Z,23.79
2018-08-10T12:02:36.405Z,24.21
2018-08-10T12:05:06.362Z,20.84
2018-08-10T12:07:35.103Z,20.13
2018-08-10T12:10:03.987Z,20.22
2018-08-10T12:12:32.818Z,19.54
2018-08-10T12:15:01.515Z,19.62
2018-08-10T12:17:30.435Z,21.82
2018-08-10T12:19:59.179Z,20.96
2018-08-10T12:22:27.928Z,23.79
2018-08-10T12:24:56.711Z,24.35
2018-08-10T12:27:25.467Z,23.51
2018-08-10T12:29:54.267Z,23.12
2018-08-10T12:32:23.046Z,23.80
2018-08-10T12:34:51.781Z,23.35
2018-08-10T12:37:20.511Z,24.74
2018-08-10T12:39:49.268Z,23.54
2018-08-10T12:42:18.151Z,22.36
2018-08-10T12:44:46.901Z,24.55
2018-08-10T12:47:15.689Z,25.90
2018-08-10T12:49:44.466Z,26.72
2018-08-10T12:52:13.228Z,26.56
2018-08-10T12:54:41.961Z,27.79
2018-08-10T12:57:10.767Z,30.15
2018-08-10T12:59:39.497Z,32.41
2018-08-10T13:02:08.390Z,33.52
2018-08-10T13:04:37.169Z,33.08
2018-08-10T13:07:06.017Z,33.72
2018-08-10T13:09:37.174Z,34.67
2018-08-10T13:12:09.412Z,34.42
2018-08-10T13:14:42.555Z,34.73
2018-08-10T13:17:16.917Z,35.46
2018-08-10T13:19:51.609Z,36.44
2018-08-10T13:22:25.570Z,35.88
2018-08-10T13:24:54.424Z,35.67
2018-08-10T13:27:23.202Z,36.01
2018-08-10T13:29:51.961Z,33.98
2018-08-10T13:32:20.705Z,34.34
2018-08-10T13:34:49.472Z,32.96
2018-08-10T13:37:18.229Z,35.74
2018-08-10T13:39:47.126Z,35.53
2018-08-10T13:42:15.960Z,36.65
2018-08-10T13:44:44.705Z,36.18
2018-08-10T13:47:13.453Z,36.16
2018-08-10T13:49:42.431Z,36.40
2018-08-10T13:52:11.262Z,36.60
2018-08-10T13:54:40.050Z,36.74
2018-08-10T13:57:08.792Z,36.48
2018-08-10T13:59:37.766Z,35.89
2018-08-10T14:02:06.561Z,36.80
2018-08-10T14:04:35.407Z,37.74
2018-08-10T14:07:04.192Z,36.95
2018-08-10T14:09:32.941Z,38.09
2018-08-10T14:12:01.693Z,38.12
2018-08-10T14:14:30.407Z,38.37
2018-08-10T14:16:59.163Z,37.73
2018-08-10T14:19:27.918Z,37.80
2018-08-10T14:21:56.872Z,37.39
2018-08-10T14:24:25.762Z,37.73
2018-08-10T14:26:54.507Z,37.13
2018-08-10T14:29:23.260Z,37.72
2018-08-10T14:31:51.973Z,38.35
2018-08-10T14:34:20.689Z,38.57
2018-08-10T14:36:49.435Z,38.82
2018-08-10T14:39:18.167Z,39.07
2018-08-10T14:41:46.871Z,38.00
2018-08-10T14:44:15.904Z,37.05
2018-08-10T14:46:44.659Z,37.87
2018-08-10T14:49:13.407Z,39.25
2018-08-10T14:51:42.193Z,39.82
2018-08-10T14:54:10.967Z,40.00
2018-08-10T14:56:39.753Z,39.16
2018-08-10T14:59:08.473Z,40.12
2018-08-10T15:01:37.191Z,40.63
2018-08-10T15:04:05.934Z,40.43
2018-08-10T15:06:34.704Z,40.41
2018-08-10T15:09:04.771Z,40.86
2018-08-10T15:11:33.624Z,43.12
2018-08-10T15:14:02.370Z,41.89
2018-08-10T15:16:31.097Z,41.83
2018-08-10T15:18:59.821Z,40.66
2018-08-10T15:21:28.737Z,41.24
2018-08-10T15:23:57.713Z,43.12
2018-08-10T15:26:26.483Z,43.44
2018-08-10T15:28:55.228Z,41.81
2018-08-10T15:31:23.972Z,41.27
2018-08-10T15:33:53.113Z,40.11
2018-08-10T15:36:21.842Z,40.33
2018-08-10T15:38:51.499Z,43.40
2018-08-10T15:41:20.264Z,41.58
2018-08-10T15:43:49.062Z,39.98
2018-08-10T15:46:17.835Z,40.86
2018-08-10T15:48:46.762Z,38.69
2018-08-10T15:51:15.485Z,39.78
2018-08-10T15:53:48.240Z,39.23
2018-08-10T15:56:21.186Z,38.43
2018-08-10T15:58:55.432Z,40.89
2018-08-10T16:01:28.459Z,42.35
2018-08-10T16:04:01.370Z,41.94
2018-08-10T16:06:34.472Z,42.00
2018-08-10T16:09:10.181Z,44.17
2018-08-10T16:11:43.613Z,44.08
2018-08-10T16:14:15.694Z,43.81
2018-08-10T16:16:49.585Z,45.00
2018-08-10T16:19:18.572Z,45.90
2018-08-10T16:21:47.382Z,45.23
2018-08-10T16:24:16.106Z,46.26
2018-08-10T16:26:44.811Z,46.33
2018-08-10T16:29:13.508Z,47.02
2018-08-10T16:31:42.233Z,48.97
2018-08-10T16:34:10.946Z,48.02
2018-08-10T16:36:39.683Z,47.99
2018-08-10T16:39:10.476Z,48.70
2018-08-10T16:41:39.206Z,49.73
2018-08-10T16:44:08.160Z,51.50
2018-08-10T16:46:36.861Z,52.93
2018-08-10T16:49:05.703Z,54.84
2018-08-10T16:51:34.437Z,58.58
2018-08-10T16:54:03.176Z,58.41
2018-08-10T16:56:32.060Z,58.99
2018-08-10T16:59:00.814Z,61.68
2018-08-10T17:01:29.574Z,62.26
2018-08-10T17:03:58.309Z,68.00
2018-08-10T17:06:27.126Z,68.88
2018-08-10T17:08:55.903Z,69.81
2018-08-10T17:11:24.606Z,70.55
2018-08-10T17:13:53.613Z,70.61
2018-08-10T17:16:22.397Z,69.62
2018-08-10T17:18:51.132Z,70.83
2018-08-10T17:21:19.869Z,70.64
2018-08-10T17:23:48.604Z,70.62
2018-08-10T17:26:17.342Z,71.78
2018-08-10T17:28:46.074Z,72.75
2018-08-10T17:31:14.795Z,71.83
2018-08-10T17:33:43.632Z,72.81
2018-08-10T17:36:12.355Z,73.63
2018-08-10T17:38:41.120Z,74.02
2018-08-10T17:41:09.845Z,74.68
2018-08-10T17:43:38.580Z,71.45
2018-08-10T17:46:07.342Z,72.51
2018-08-10T17:48:36.071Z,73.52
2018-08-10T17:51:04.823Z,75.14
2018-08-10T17:53:33.558Z,72.75
2018-08-10T17:56:02.277Z,73.48
2018-08-10T17:58:31.033Z,74.42
2018-08-10T18:00:59.773Z,73.26
2018-08-10T18:03:28.780Z,74.53
2018-08-10T18:05:57.485Z,75.34
2018-08-10T18:08:26.230Z,76.45
2018-08-10T18:10:54.960Z,76.38
2018-08-10T18:13:23.692Z,76.68
2018-08-10T18:15:52.507Z,77.07
2018-08-10T18:18:21.381Z,77.61
2018-08-10T18:20:50.188Z,78.01
2018-08-10T18:23:19.005Z,78.97
2018-08-10T18:25:47.751Z,80.11
2018-08-10T18:28:16.567Z,78.93
2018-08-10T18:30:45.345Z,79.08
2018-08-10T18:33:14.141Z,79.72
2018-08-10T18:35:42.893Z,79.18
2018-08-10T18:38:11.638Z,78.93
2018-08-10T18:40:40.516Z,78.91
2018-08-10T18:43:09.256Z,79.67
2018-08-10T18:45:38.025Z,79.88
2018-08-10T18:48:06.863Z,82.71
2018-08-10T18:50:35.617Z,83.55
2018-08-10T18:53:04.358Z,82.43
2018-08-10T18:55:33.145Z,83.63
2018-08-10T18:58:01.886Z,82.17
2018-08-10T19:00:30.668Z,84.59
2018-08-10T19:02:59.444Z,86.22
2018-08-10T19:05:28.214Z,86.95
2018-08-10T19:07:56.997Z,87.75
2018-08-10T19:10:27.921Z,88.87
2018-08-10T19:12:56.680Z,88.86
2018-08-10T19:15:25.437Z,89.83
2018-08-10T19:17:54.201Z,89.47
2018-08-10T19:20:22.997Z,90.66
2018-08-10T19:22:51.767Z,89.99
2018-08-10T19:25:20.596Z,90.96
2018-08-10T19:27:49.375Z,91.88
2018-08-10T19:30:21.659Z,90.79
2018-08-10T19:32:50.521Z,90.98
2018-08-10T19:35:19.572Z,89.98
2018-08-10T19:37:48.589Z,90.37
2018-08-10T19:40:18.621Z,89.46
2018-08-10T19:42:47.413Z,89.67
2018-08-10T19:45:17.211Z,89.74
2018-08-10T19:47:46.014Z,91.15
2018-08-10T19:50:16.082Z,91.97
2018-08-10T19:52:44.856Z,93.01
2018-08-10T19:55:15.407Z,93.32
2018-08-10T19:57:44.318Z,93.73
2018-08-10T20:00:15.475Z,93.82
2018-08-10T20:02:46.792Z,92.27
2018-08-10T20:05:15.622Z,93.15
2018-08-10T20:07:44.429Z,92.87
2018-08-10T20:10:13.889Z,93.56
2018-08-10T20:12:42.757Z,92.78
2018-08-10T20:15:13.115Z,93.38
2018-08-10T20:17:42.485Z,91.73
2018-08-10T20:20:13.100Z,92.04
2018-08-10T20:22:41.957Z,92.45
2018-08-10T20:25:11.504Z,92.30
2018-08-10T20:27:40.275Z,92.73
2018-08-10T20:30:13.126Z,93.25
2018-08-10T20:32:41.981Z,91.30
2018-08-10T20:35:14.460Z,91.29
2018-08-10T20:37:43.563Z,91.42
2018-08-10T20:40:14.316Z,91.62
2018-08-10T20:42:43.135Z,92.19
2018-08-10T20:45:11.968Z,94.68
2018-08-10T20:47:40.783Z,95.30
2018-08-10T20:50:12.416Z,95.48
2018-08-10T20:52:41.434Z,95.38
2018-08-10T20:55:10.334Z,95.86
2018-08-10T20:57:39.128Z,94.40
2018-08-10T21:00:08.851Z,94.78
2018-08-10T21:02:37.595Z,94.04
2018-08-10T21:05:06.667Z,95.40
2018-08-10T21:07:35.559Z,96.96
2018-08-10T21:10:04.423Z,97.26
2018-08-10T21:12:33.210Z,97.45
2018-08-10T21:15:01.961Z,98.50
2018-08-10T21:17:30.768Z,98.82
2018-08-10T21:19:59.600Z,97.40
2018-08-10T21:22:28.376Z,96.44
2018-08-10T21:24:57.143Z,97.25
2018-08-10T21:27:26.291Z,96.34
2018-08-10T21:29:55.109Z,96.03
2018-08-10T21:32:23.861Z,96.53
2018-08-10T21:34:52.566Z,94.83
2018-08-10T21:37:21.309Z,96.17
2018-08-10T21:39:50.020Z,96.70
2018-08-10T21:42:19.222Z,96.34
2018-08-10T21:44:48.047Z,97.02
2018-08-10T21:47:16.781Z,96.81
2018-08-10T21:49:45.482Z,96.03
2018-08-10T21:52:14.341Z,96.00
2018-08-10T21:54:43.028Z,96.20
2018-08-10T21:57:11.722Z,96.12
2018-08-10T21:59:40.425Z,96.74
2018-08-10T22:02:10.673Z,96.57
2018-08-10T22:04:39.392Z,97.79
2018-08-10T22:07:08.184Z,96.80
2018-08-10T22:09:36.958Z,98.24
2018-08-10T22:12:05.677Z,98.33
2018-08-10T22:14:39.828Z,97.57
2018-08-10T22:17:13.714Z,96.91
2018-08-10T22:19:42.481Z,97.30
2018-08-10T22:22:11.242Z,98.10
2018-08-10T22:24:40.468Z,97.67
2018-08-10T22:27:09.473Z,98.86
2018-08-10T22:29:38.997Z,98.13
2018-08-10T22:32:08.082Z,98.09
2018-08-10T22:34:37.610Z,98.58
2018-08-10T22:37:06.810Z,99.88
2018-08-10T22:39:35.539Z,99.23
2018-08-10T22:42:04.381Z,97.82
2018-08-10T22:44:33.341Z,97.53
2018-08-10T22:47:02.132Z,96.40
2018-08-10T22:49:30.974Z,97.33
2018-08-10T22:52:00.334Z,97.26
2018-08-10T22:54:29.045Z,98.31
2018-08-10T22:56:57.804Z,97.98
2018-08-10T22:59:26.535Z,98.14
2018-08-10T23:01:55.264Z,97.78
2018-08-10T23:04:23.995Z,97.87
2018-08-10T23:06:52.754Z,97.89
2018-08-10T23:09:21.527Z,98.58
2018-08-10T23:11:50.337Z,99.04
2018-08-10T23:14:19.107Z,98.49
2018-08-10T23:16:47.829Z,98.36
2018-08-10T23:19:16.509Z,98.06
2018-08-10T23:21:45.244Z,98.06
2018-08-10T23:24:14.074Z,98.86
2018-08-10T23:26:42.774Z,99.84
2018-08-10T23:29:11.587Z,99.86
2018-08-10T23:31:40.297Z,100.00
2018-08-10T23:34:09.045Z,100.00
2018-08-10T23:36:37.918Z,100.00
2018-08-10T23:39:09.382Z,100.00
2018-08-10T23:41:38.119Z,99.34
2018-08-10T23:44:06.893Z,100.00
2018-08-10T23:46:35.585Z,99.85
2018-08-10T23:49:04.344Z,100.00
2018-08-10T23:51:33.359Z,99.33
2018-08-10T23:54:02.186Z,100.00
2018-08-10T23:56:30.922Z,100.00
2018-08-10T23:58:59.818Z,100.00
